sensor_id;sensor_type;location;lat;lon;timestamp;P1;durP1;ratioP1;P2;durP2;ratioP2
70951;SDS011;69214;55.880;37.542;2023-05-10T00:01:32;4.35;;;1.05;;
70951;SDS011;69214;55.880;37.542;2023-05-10T00:03:57;4.93;;;1.13;;
70951;SDS011;69214;55.880;37.542;2023-05-10T00:06:23;4.93;;;1.35;;
70951;SDS011;69214;55.880;37.542;2023-05-10T00:08:49;4.55;;;0.82;;
70951;SDS011;69214;55.880;37.542;2023-05-10T00:11:15;4.50;;;1.10;;
70951;SDS011;69214;55.880;37.542;2023-05-10T00:13:40;3.90;;;1.10;;
70951;SDS011;69214;55.880;37.542;2023-05-10T00:16:06;5.43;;;1.00;;
70951;SDS011;69214;55.880;37.542;2023-05-10T00:18:32;6.47;;;1.27;;
70951;SDS011;69214;55.880;37.542;2023-05-10T00:20:57;4.77;;;1.07;;
70951;SDS011;69214;55.880;37.542;2023-05-10T00:23:23;2.90;;;0.90;;
70951;SDS011;69214;55.880;37.542;2023-05-10T00:25:49;3.40;;;1.00;;
70951;SDS011;69214;55.880;37.542;2023-05-10T00:28:14;2.97;;;0.77;;
70951;SDS011;69214;55.880;37.542;2023-05-10T00:30:40;3.83;;;0.90;;
70951;SDS011;69214;55.880;37.542;2023-05-10T00:33:06;3.78;;;1.00;;
70951;SDS011;69214;55.880;37.542;2023-05-10T00:35:32;4.25;;;1.00;;
70951;SDS011;69214;55.880;37.542;2023-05-10T00:37:57;5.03;;;0.90;;
70951;SDS011;69214;55.880;37.542;2023-05-10T00:40:23;3.75;;;0.90;;
70951;SDS011;69214;55.880;37.542;2023-05-10T00:42:53;3.53;;;1.00;;
70951;SDS011;69214;55.880;37.542;2023-05-10T00:45:20;5.40;;;1.00;;
70951;SDS011;69214;55.880;37.542;2023-05-10T00:47:45;3.35;;;0.68;;
70951;SDS011;69214;55.880;37.542;2023-05-10T00:50:11;4.15;;;1.40;;
70951;SDS011;69214;55.880;37.542;2023-05-10T00:52:37;3.30;;;0.90;;
70951;SDS011;69214;55.880;37.542;2023-05-10T00:55:03;4.55;;;0.90;;
70951;SDS011;69214;55.880;37.542;2023-05-10T00:57:30;3.50;;;0.90;;
70951;SDS011;69214;55.880;37.542;2023-05-10T00:59:56;4.13;;;1.00;;
70951;SDS011;69214;55.880;37.542;2023-05-10T01:02:23;4.25;;;0.85;;
70951;SDS011;69214;55.880;37.542;2023-05-10T01:04:49;5.63;;;1.15;;
70951;SDS011;69214;55.880;37.542;2023-05-10T01:07:15;2.88;;;0.82;;
70951;SDS011;69214;55.880;37.542;2023-05-10T01:09:42;3.42;;;0.82;;
70951;SDS011;69214;55.880;37.542;2023-05-10T01:12:08;4.27;;;1.07;;
70951;SDS011;69214;55.880;37.542;2023-05-10T01:14:33;2.95;;;0.82;;
70951;SDS011;69214;55.880;37.542;2023-05-10T01:17:01;3.90;;;1.10;;
70951;SDS011;69214;55.880;37.542;2023-05-10T01:19:28;4.10;;;0.80;;
70951;SDS011;69214;55.880;37.542;2023-05-10T01:28:19;4.43;;;0.85;;
70951;SDS011;69214;55.880;37.542;2023-05-10T01:33:55;2.53;;;0.88;;
70951;SDS011;69214;55.880;37.542;2023-05-10T01:36:51;4.23;;;0.80;;
70951;SDS011;69214;55.880;37.542;2023-05-10T01:39:23;8.02;;;1.15;;
70951;SDS011;69214;55.880;37.542;2023-05-10T01:47:31;5.13;;;1.13;;
70951;SDS011;69214;55.880;37.542;2023-05-10T01:50:03;5.47;;;1.17;;
70951;SDS011;69214;55.880;37.542;2023-05-10T01:52:34;5.53;;;1.23;;
70951;SDS011;69214;55.880;37.542;2023-05-10T01:55:08;6.30;;;1.23;;
70951;SDS011;69214;55.880;37.542;2023-05-10T01:57:37;4.65;;;1.08;;
70951;SDS011;69214;55.880;37.542;2023-05-10T02:00:06;5.45;;;1.10;;
70951;SDS011;69214;55.880;37.542;2023-05-10T02:02:44;3.60;;;0.93;;
70951;SDS011;69214;55.880;37.542;2023-05-10T02:05:12;6.40;;;1.02;;
70951;SDS011;69214;55.880;37.542;2023-05-10T02:07:40;5.55;;;1.20;;
70951;SDS011;69214;55.880;37.542;2023-05-10T02:10:07;4.88;;;0.82;;
70951;SDS011;69214;55.880;37.542;2023-05-10T02:12:36;6.43;;;1.33;;
70951;SDS011;69214;55.880;37.542;2023-05-10T02:15:05;5.67;;;1.13;;
70951;SDS011;69214;55.880;37.542;2023-05-10T02:17:33;4.25;;;1.08;;
70951;SDS011;69214;55.880;37.542;2023-05-10T02:20:02;5.35;;;1.20;;
70951;SDS011;69214;55.880;37.542;2023-05-10T02:22:30;4.68;;;0.93;;
70951;SDS011;69214;55.880;37.542;2023-05-10T02:24:57;3.67;;;1.00;;
70951;SDS011;69214;55.880;37.542;2023-05-10T02:27:27;4.67;;;0.90;;
70951;SDS011;69214;55.880;37.542;2023-05-10T02:29:53;5.70;;;1.25;;
70951;SDS011;69214;55.880;37.542;2023-05-10T02:32:21;3.53;;;0.90;;
70951;SDS011;69214;55.880;37.542;2023-05-10T02:34:49;3.92;;;0.90;;
70951;SDS011;69214;55.880;37.542;2023-05-10T02:37:18;3.22;;;0.95;;
70951;SDS011;69214;55.880;37.542;2023-05-10T02:39:46;3.63;;;0.97;;
70951;SDS011;69214;55.880;37.542;2023-05-10T02:42:14;4.40;;;1.00;;
70951;SDS011;69214;55.880;37.542;2023-05-10T02:44:43;7.05;;;1.00;;
70951;SDS011;69214;55.880;37.542;2023-05-10T02:47:14;7.13;;;0.88;;
70951;SDS011;69214;55.880;37.542;2023-05-10T02:49:40;3.87;;;0.90;;
70951;SDS011;69214;55.880;37.542;2023-05-10T02:52:07;4.50;;;0.73;;
70951;SDS011;69214;55.880;37.542;2023-05-10T02:54:41;6.75;;;1.17;;
70951;SDS011;69214;55.880;37.542;2023-05-10T02:57:11;3.15;;;0.70;;
70951;SDS011;69214;55.880;37.542;2023-05-10T02:59:41;4.78;;;0.80;;
70951;SDS011;69214;55.880;37.542;2023-05-10T03:02:08;3.95;;;0.98;;
70951;SDS011;69214;55.880;37.542;2023-05-10T03:04:34;5.13;;;0.93;;
70951;SDS011;69214;55.880;37.542;2023-05-10T03:07:00;5.90;;;1.00;;
70951;SDS011;69214;55.880;37.542;2023-05-10T03:09:27;3.75;;;1.05;;
70951;SDS011;69214;55.880;37.542;2023-05-10T03:15:06;6.50;;;1.20;;
70951;SDS011;69214;55.880;37.542;2023-05-10T03:17:43;3.78;;;1.00;;
70951;SDS011;69214;55.880;37.542;2023-05-10T03:20:24;6.32;;;1.13;;
70951;SDS011;69214;55.880;37.542;2023-05-10T03:23:02;4.45;;;1.27;;
70951;SDS011;69214;55.880;37.542;2023-05-10T03:25:32;4.93;;;1.27;;
70951;SDS011;69214;55.880;37.542;2023-05-10T03:28:01;5.57;;;1.10;;
70951;SDS011;69214;55.880;37.542;2023-05-10T03:30:29;3.90;;;1.00;;
70951;SDS011;69214;55.880;37.542;2023-05-10T03:32:55;5.93;;;1.35;;
70951;SDS011;69214;55.880;37.542;2023-05-10T03:35:22;3.20;;;0.82;;
70951;SDS011;69214;55.880;37.542;2023-05-10T03:37:49;3.95;;;1.10;;
70951;SDS011;69214;55.880;37.542;2023-05-10T03:40:14;5.63;;;0.90;;
70951;SDS011;69214;55.880;37.542;2023-05-10T03:42:42;3.35;;;1.05;;
70951;SDS011;69214;55.880;37.542;2023-05-10T03:45:08;4.53;;;0.97;;
70951;SDS011;69214;55.880;37.542;2023-05-10T03:47:35;3.97;;;0.90;;
70951;SDS011;69214;55.880;37.542;2023-05-10T03:50:00;3.83;;;0.80;;
70951;SDS011;69214;55.880;37.542;2023-05-10T03:52:29;3.58;;;1.00;;
70951;SDS011;69214;55.880;37.542;2023-05-10T03:54:55;3.60;;;0.93;;
70951;SDS011;69214;55.880;37.542;2023-05-10T03:57:22;3.22;;;0.80;;
70951;SDS011;69214;55.880;37.542;2023-05-10T03:59:48;2.28;;;0.68;;
70951;SDS011;69214;55.880;37.542;2023-05-10T04:02:14;2.80;;;0.70;;
70951;SDS011;69214;55.880;37.542;2023-05-10T04:04:39;3.65;;;0.70;;
70951;SDS011;69214;55.880;37.542;2023-05-10T04:07:05;2.97;;;0.90;;
70951;SDS011;69214;55.880;37.542;2023-05-10T04:09:31;4.55;;;0.98;;
70951;SDS011;69214;55.880;37.542;2023-05-10T04:11:58;3.13;;;0.60;;
70951;SDS011;69214;55.880;37.542;2023-05-10T04:14:25;3.90;;;0.90;;
70951;SDS011;69214;55.880;37.542;2023-05-10T04:16:50;4.00;;;0.90;;
70951;SDS011;69214;55.880;37.542;2023-05-10T04:19:16;5.23;;;0.80;;
70951;SDS011;69214;55.880;37.542;2023-05-10T04:21:42;7.30;;;1.00;;
70951;SDS011;69214;55.880;37.542;2023-05-10T04:24:07;5.83;;;1.23;;
70951;SDS011;69214;55.880;37.542;2023-05-10T04:26:33;3.07;;;0.70;;
70951;SDS011;69214;55.880;37.542;2023-05-10T04:28:59;3.10;;;0.80;;
70951;SDS011;69214;55.880;37.542;2023-05-10T04:31:24;5.83;;;0.70;;
70951;SDS011;69214;55.880;37.542;2023-05-10T04:33:51;5.05;;;0.90;;
70951;SDS011;69214;55.880;37.542;2023-05-10T04:36:17;3.88;;;1.00;;
70951;SDS011;69214;55.880;37.542;2023-05-10T04:38:43;3.10;;;0.70;;
70951;SDS011;69214;55.880;37.542;2023-05-10T04:41:09;3.33;;;0.93;;
70951;SDS011;69214;55.880;37.542;2023-05-10T04:43:36;3.97;;;1.00;;
70951;SDS011;69214;55.880;37.542;2023-05-10T04:46:02;3.30;;;0.70;;
70951;SDS011;69214;55.880;37.542;2023-05-10T04:48:29;7.70;;;1.00;;
70951;SDS011;69214;55.880;37.542;2023-05-10T04:50:55;4.30;;;0.93;;
70951;SDS011;69214;55.880;37.542;2023-05-10T04:53:21;4.10;;;0.68;;
70951;SDS011;69214;55.880;37.542;2023-05-10T04:55:47;5.25;;;0.63;;
70951;SDS011;69214;55.880;37.542;2023-05-10T04:58:13;4.00;;;0.65;;
70951;SDS011;69214;55.880;37.542;2023-05-10T05:00:39;2.70;;;0.80;;
70951;SDS011;69214;55.880;37.542;2023-05-10T05:03:05;3.75;;;0.80;;
70951;SDS011;69214;55.880;37.542;2023-05-10T05:05:31;4.50;;;0.80;;
70951;SDS011;69214;55.880;37.542;2023-05-10T05:07:57;2.87;;;0.80;;
70951;SDS011;69214;55.880;37.542;2023-05-10T05:10:23;3.22;;;0.80;;
70951;SDS011;69214;55.880;37.542;2023-05-10T05:12:49;5.53;;;0.85;;
70951;SDS011;69214;55.880;37.542;2023-05-10T05:15:15;3.37;;;1.00;;
70951;SDS011;69214;55.880;37.542;2023-05-10T05:17:42;4.35;;;0.60;;
70951;SDS011;69214;55.880;37.542;2023-05-10T05:20:08;4.07;;;0.70;;
70951;SDS011;69214;55.880;37.542;2023-05-10T05:22:35;2.83;;;0.68;;
70951;SDS011;69214;55.880;37.542;2023-05-10T05:25:02;4.30;;;0.87;;
70951;SDS011;69214;55.880;37.542;2023-05-10T05:27:29;5.05;;;0.70;;
70951;SDS011;69214;55.880;37.542;2023-05-10T05:29:55;2.80;;;0.80;;
70951;SDS011;69214;55.880;37.542;2023-05-10T05:32:22;2.80;;;0.63;;
70951;SDS011;69214;55.880;37.542;2023-05-10T05:34:48;2.83;;;0.50;;
70951;SDS011;69214;55.880;37.542;2023-05-10T05:37:14;3.03;;;0.70;;
70951;SDS011;69214;55.880;37.542;2023-05-10T05:39:41;2.45;;;0.60;;
70951;SDS011;69214;55.880;37.542;2023-05-10T05:42:08;2.88;;;0.60;;
70951;SDS011;69214;55.880;37.542;2023-05-10T05:44:37;3.88;;;0.60;;
70951;SDS011;69214;55.880;37.542;2023-05-10T05:47:03;2.23;;;0.50;;
70951;SDS011;69214;55.880;37.542;2023-05-10T05:49:29;5.60;;;0.50;;
70951;SDS011;69214;55.880;37.542;2023-05-10T05:51:58;3.30;;;0.80;;
70951;SDS011;69214;55.880;37.542;2023-05-10T05:54:24;5.60;;;0.45;;
70951;SDS011;69214;55.880;37.542;2023-05-10T05:56:50;2.33;;;0.60;;
70951;SDS011;69214;55.880;37.542;2023-05-10T05:59:15;3.10;;;0.52;;
70951;SDS011;69214;55.880;37.542;2023-05-10T06:01:42;2.80;;;0.60;;
70951;SDS011;69214;55.880;37.542;2023-05-10T06:04:07;2.33;;;0.60;;
70951;SDS011;69214;55.880;37.542;2023-05-10T06:06:33;3.15;;;0.80;;
70951;SDS011;69214;55.880;37.542;2023-05-10T06:08:59;2.87;;;0.53;;
70951;SDS011;69214;55.880;37.542;2023-05-10T06:11:25;2.05;;;0.55;;
70951;SDS011;69214;55.880;37.542;2023-05-10T06:13:51;2.87;;;0.60;;
70951;SDS011;69214;55.880;37.542;2023-05-10T06:16:16;3.13;;;0.50;;
70951;SDS011;69214;55.880;37.542;2023-05-10T06:18:42;5.57;;;0.85;;
70951;SDS011;69214;55.880;37.542;2023-05-10T06:21:08;2.37;;;0.57;;
70951;SDS011;69214;55.880;37.542;2023-05-10T06:23:34;4.88;;;1.05;;
70951;SDS011;69214;55.880;37.542;2023-05-10T06:26:01;3.35;;;0.98;;
70951;SDS011;69214;55.880;37.542;2023-05-10T06:28:26;2.63;;;0.63;;
70951;SDS011;69214;55.880;37.542;2023-05-10T06:30:52;3.20;;;0.40;;
70951;SDS011;69214;55.880;37.542;2023-05-10T06:33:18;3.70;;;0.50;;
70951;SDS011;69214;55.880;37.542;2023-05-10T06:35:44;3.13;;;0.60;;
70951;SDS011;69214;55.880;37.542;2023-05-10T06:38:09;2.83;;;0.60;;
70951;SDS011;69214;55.880;37.542;2023-05-10T06:40:35;2.28;;;0.60;;
70951;SDS011;69214;55.880;37.542;2023-05-10T06:43:01;4.30;;;0.60;;
70951;SDS011;69214;55.880;37.542;2023-05-10T06:45:27;2.35;;;0.68;;
70951;SDS011;69214;55.880;37.542;2023-05-10T06:47:53;2.63;;;0.60;;
70951;SDS011;69214;55.880;37.542;2023-05-10T06:50:18;3.30;;;0.60;;
70951;SDS011;69214;55.880;37.542;2023-05-10T06:52:44;2.95;;;0.55;;
70951;SDS011;69214;55.880;37.542;2023-05-10T06:55:10;3.03;;;0.70;;
70951;SDS011;69214;55.880;37.542;2023-05-10T06:57:35;3.55;;;0.60;;
70951;SDS011;69214;55.880;37.542;2023-05-10T07:00:02;2.30;;;0.60;;
70951;SDS011;69214;55.880;37.542;2023-05-10T07:02:30;1.75;;;0.40;;
70951;SDS011;69214;55.880;37.542;2023-05-10T07:04:56;4.13;;;0.50;;
70951;SDS011;69214;55.880;37.542;2023-05-10T07:07:21;3.13;;;0.67;;
70951;SDS011;69214;55.880;37.542;2023-05-10T07:09:47;2.65;;;0.50;;
70951;SDS011;69214;55.880;37.542;2023-05-10T07:12:14;2.50;;;0.70;;
70951;SDS011;69214;55.880;37.542;2023-05-10T07:14:39;3.30;;;0.80;;
70951;SDS011;69214;55.880;37.542;2023-05-10T07:17:05;4.67;;;0.70;;
70951;SDS011;69214;55.880;37.542;2023-05-10T07:19:31;4.63;;;0.70;;
70951;SDS011;69214;55.880;37.542;2023-05-10T07:21:57;4.50;;;0.80;;
70951;SDS011;69214;55.880;37.542;2023-05-10T07:24:23;1.95;;;0.47;;
70951;SDS011;69214;55.880;37.542;2023-05-10T07:26:49;2.47;;;0.50;;
70951;SDS011;69214;55.880;37.542;2023-05-10T07:29:15;5.55;;;0.80;;
70951;SDS011;69214;55.880;37.542;2023-05-10T07:31:41;1.80;;;0.60;;
70951;SDS011;69214;55.880;37.542;2023-05-10T07:34:09;3.30;;;0.70;;
70951;SDS011;69214;55.880;37.542;2023-05-10T07:36:35;2.95;;;0.57;;
70951;SDS011;69214;55.880;37.542;2023-05-10T07:39:01;2.73;;;0.60;;
70951;SDS011;69214;55.880;37.542;2023-05-10T07:41:27;2.17;;;0.60;;
70951;SDS011;69214;55.880;37.542;2023-05-10T07:43:53;2.33;;;0.60;;
70951;SDS011;69214;55.880;37.542;2023-05-10T07:46:18;2.30;;;0.60;;
70951;SDS011;69214;55.880;37.542;2023-05-10T07:48:47;2.63;;;0.70;;
70951;SDS011;69214;55.880;37.542;2023-05-10T07:51:13;1.92;;;0.60;;
70951;SDS011;69214;55.880;37.542;2023-05-10T07:53:38;3.63;;;0.73;;
70951;SDS011;69214;55.880;37.542;2023-05-10T07:56:20;1.80;;;0.65;;
70951;SDS011;69214;55.880;37.542;2023-05-10T07:58:49;1.55;;;0.50;;
70951;SDS011;69214;55.880;37.542;2023-05-10T08:01:15;3.00;;;0.60;;
70951;SDS011;69214;55.880;37.542;2023-05-10T08:03:40;2.22;;;0.60;;
70951;SDS011;69214;55.880;37.542;2023-05-10T08:06:06;1.47;;;0.60;;
70951;SDS011;69214;55.880;37.542;2023-05-10T08:08:33;2.55;;;0.68;;
70951;SDS011;69214;55.880;37.542;2023-05-10T08:10:59;1.52;;;0.70;;
70951;SDS011;69214;55.880;37.542;2023-05-10T08:13:24;2.13;;;0.80;;
70951;SDS011;69214;55.880;37.542;2023-05-10T08:15:50;2.80;;;0.95;;
70951;SDS011;69214;55.880;37.542;2023-05-10T08:18:18;1.90;;;0.60;;
70951;SDS011;69214;55.880;37.542;2023-05-10T08:20:44;4.03;;;0.60;;
70951;SDS011;69214;55.880;37.542;2023-05-10T08:23:11;2.20;;;0.80;;
70951;SDS011;69214;55.880;37.542;2023-05-10T08:25:38;3.22;;;0.73;;
70951;SDS011;69214;55.880;37.542;2023-05-10T08:28:03;4.45;;;0.60;;
70951;SDS011;69214;55.880;37.542;2023-05-10T08:30:29;3.13;;;0.70;;
70951;SDS011;69214;55.880;37.542;2023-05-10T08:32:55;3.88;;;0.60;;
70951;SDS011;69214;55.880;37.542;2023-05-10T08:35:21;5.53;;;0.80;;
70951;SDS011;69214;55.880;37.542;2023-05-10T08:37:47;2.33;;;0.73;;
70951;SDS011;69214;55.880;37.542;2023-05-10T08:40:13;2.40;;;0.40;;
70951;SDS011;69214;55.880;37.542;2023-05-10T08:42:43;7.33;;;0.50;;
70951;SDS011;69214;55.880;37.542;2023-05-10T08:45:15;2.83;;;0.50;;
70951;SDS011;69214;55.880;37.542;2023-05-10T08:47:44;2.05;;;0.40;;
70951;SDS011;69214;55.880;37.542;2023-05-10T08:50:10;1.67;;;0.43;;
70951;SDS011;69214;55.880;37.542;2023-05-10T08:52:37;2.70;;;0.40;;
70951;SDS011;69214;55.880;37.542;2023-05-10T08:55:05;3.45;;;0.60;;
70951;SDS011;69214;55.880;37.542;2023-05-10T08:57:31;1.83;;;0.60;;
70951;SDS011;69214;55.880;37.542;2023-05-10T08:59:57;1.45;;;0.30;;
70951;SDS011;69214;55.880;37.542;2023-05-10T09:02:25;1.63;;;0.40;;
70951;SDS011;69214;55.880;37.542;2023-05-10T09:04:52;2.40;;;0.40;;
70951;SDS011;69214;55.880;37.542;2023-05-10T09:07:18;2.70;;;0.40;;
70951;SDS011;69214;55.880;37.542;2023-05-10T09:09:45;1.60;;;0.43;;
70951;SDS011;69214;55.880;37.542;2023-05-10T09:12:11;4.53;;;0.65;;
70951;SDS011;69214;55.880;37.542;2023-05-10T09:14:40;1.63;;;0.40;;
70951;SDS011;69214;55.880;37.542;2023-05-10T09:17:07;2.50;;;0.38;;
70951;SDS011;69214;55.880;37.542;2023-05-10T09:19:33;3.47;;;0.30;;
70951;SDS011;69214;55.880;37.542;2023-05-10T09:21:58;3.50;;;0.50;;
70951;SDS011;69214;55.880;37.542;2023-05-10T09:24:26;2.53;;;0.30;;
70951;SDS011;69214;55.880;37.542;2023-05-10T09:26:52;1.33;;;0.33;;
70951;SDS011;69214;55.880;37.542;2023-05-10T09:29:18;0.93;;;0.38;;
70951;SDS011;69214;55.880;37.542;2023-05-10T09:31:44;2.50;;;0.50;;
70951;SDS011;69214;55.880;37.542;2023-05-10T09:34:46;2.75;;;0.40;;
70951;SDS011;69214;55.880;37.542;2023-05-10T09:37:06;2.60;;;0.20;;
70951;SDS011;69214;55.880;37.542;2023-05-10T09:39:33;1.70;;;0.30;;
70951;SDS011;69214;55.880;37.542;2023-05-10T09:42:04;1.83;;;0.30;;
70951;SDS011;69214;55.880;37.542;2023-05-10T09:44:31;2.37;;;0.30;;
70951;SDS011;69214;55.880;37.542;2023-05-10T09:46:58;1.83;;;0.40;;
70951;SDS011;69214;55.880;37.542;2023-05-10T09:49:24;1.52;;;0.30;;
70951;SDS011;69214;55.880;37.542;2023-05-10T09:51:59;1.98;;;0.40;;
70951;SDS011;69214;55.880;37.542;2023-05-10T09:54:29;2.57;;;0.43;;
70951;SDS011;69214;55.880;37.542;2023-05-10T09:56:55;1.30;;;0.35;;
70951;SDS011;69214;55.880;37.542;2023-05-10T09:59:20;3.08;;;0.40;;
70951;SDS011;69214;55.880;37.542;2023-05-10T10:01:49;3.03;;;0.70;;
70951;SDS011;69214;55.880;37.542;2023-05-10T10:04:16;1.77;;;0.40;;
70951;SDS011;69214;55.880;37.542;2023-05-10T10:06:42;1.20;;;0.30;;
70951;SDS011;69214;55.880;37.542;2023-05-10T10:09:08;2.10;;;0.40;;
70951;SDS011;69214;55.880;37.542;2023-05-10T10:11:37;1.65;;;0.22;;
70951;SDS011;69214;55.880;37.542;2023-05-10T10:14:04;0.90;;;0.30;;
70951;SDS011;69214;55.880;37.542;2023-05-10T10:16:31;2.50;;;0.68;;
70951;SDS011;69214;55.880;37.542;2023-05-10T10:18:57;2.05;;;0.40;;
70951;SDS011;69214;55.880;37.542;2023-05-10T10:21:23;2.13;;;0.30;;
70951;SDS011;69214;55.880;37.542;2023-05-10T10:23:49;2.27;;;0.30;;
70951;SDS011;69214;55.880;37.542;2023-05-10T10:26:16;2.75;;;0.38;;
70951;SDS011;69214;55.880;37.542;2023-05-10T10:31:27;2.38;;;0.40;;
70951;SDS011;69214;55.880;37.542;2023-05-10T10:34:15;1.40;;;0.38;;
70951;SDS011;69214;55.880;37.542;2023-05-10T10:36:51;2.40;;;0.40;;
70951;SDS011;69214;55.880;37.542;2023-05-10T10:39:17;1.42;;;0.30;;
70951;SDS011;69214;55.880;37.542;2023-05-10T10:41:55;1.98;;;0.40;;
70951;SDS011;69214;55.880;37.542;2023-05-10T10:49:26;1.60;;;0.40;;
70951;SDS011;69214;55.880;37.542;2023-05-10T10:54:51;2.58;;;0.40;;
70951;SDS011;69214;55.880;37.542;2023-05-10T10:57:22;3.53;;;0.40;;
70951;SDS011;69214;55.880;37.542;2023-05-10T10:59:48;2.50;;;0.40;;
70951;SDS011;69214;55.880;37.542;2023-05-10T11:05:38;1.85;;;0.40;;
70951;SDS011;69214;55.880;37.542;2023-05-10T11:11:01;1.77;;;0.30;;
70951;SDS011;69214;55.880;37.542;2023-05-10T11:16:12;3.47;;;0.60;;
70951;SDS011;69214;55.880;37.542;2023-05-10T11:18:52;1.00;;;0.20;;
70951;SDS011;69214;55.880;37.542;2023-05-10T11:21:31;1.75;;;0.30;;
70951;SDS011;69214;55.880;37.542;2023-05-10T11:23:58;1.52;;;0.30;;
70951;SDS011;69214;55.880;37.542;2023-05-10T11:26:25;1.90;;;0.45;;
70951;SDS011;69214;55.880;37.542;2023-05-10T11:28:55;2.28;;;0.45;;
70951;SDS011;69214;55.880;37.542;2023-05-10T11:31:21;0.90;;;0.30;;
70951;SDS011;69214;55.880;37.542;2023-05-10T11:33:49;0.73;;;0.20;;
70951;SDS011;69214;55.880;37.542;2023-05-10T11:36:37;0.98;;;0.30;;
70951;SDS011;69214;55.880;37.542;2023-05-10T11:39:02;0.95;;;0.30;;
70951;SDS011;69214;55.880;37.542;2023-05-10T11:41:29;1.92;;;0.40;;
70951;SDS011;69214;55.880;37.542;2023-05-10T11:43:56;0.93;;;0.20;;
70951;SDS011;69214;55.880;37.542;2023-05-10T11:46:24;1.98;;;0.50;;
70951;SDS011;69214;55.880;37.542;2023-05-10T11:48:58;2.55;;;0.85;;
70951;SDS011;69214;55.880;37.542;2023-05-10T11:51:35;1.95;;;0.30;;
70951;SDS011;69214;55.880;37.542;2023-05-10T11:54:04;2.33;;;0.40;;
70951;SDS011;69214;55.880;37.542;2023-05-10T11:56:35;1.53;;;0.40;;
70951;SDS011;69214;55.880;37.542;2023-05-10T11:59:03;1.40;;;0.40;;
70951;SDS011;69214;55.880;37.542;2023-05-10T12:01:29;1.83;;;0.30;;
70951;SDS011;69214;55.880;37.542;2023-05-10T12:03:56;1.98;;;0.40;;
70951;SDS011;69214;55.880;37.542;2023-05-10T12:06:28;1.33;;;0.30;;
70951;SDS011;69214;55.880;37.542;2023-05-10T12:08:56;2.78;;;0.30;;
70951;SDS011;69214;55.880;37.542;2023-05-10T12:11:26;3.10;;;0.30;;
70951;SDS011;69214;55.880;37.542;2023-05-10T12:13:53;3.30;;;0.40;;
70951;SDS011;69214;55.880;37.542;2023-05-10T12:16:21;1.75;;;0.40;;
70951;SDS011;69214;55.880;37.542;2023-05-10T12:18:50;2.83;;;0.70;;
70951;SDS011;69214;55.880;37.542;2023-05-10T12:21:17;1.70;;;0.22;;
70951;SDS011;69214;55.880;37.542;2023-05-10T12:23:45;1.58;;;0.32;;
70951;SDS011;69214;55.880;37.542;2023-05-10T12:26:11;4.73;;;0.60;;
70951;SDS011;69214;55.880;37.542;2023-05-10T12:28:38;2.40;;;0.40;;
70951;SDS011;69214;55.880;37.542;2023-05-10T12:31:07;4.68;;;0.35;;
70951;SDS011;69214;55.880;37.542;2023-05-10T12:33:36;1.40;;;0.32;;
70951;SDS011;69214;55.880;37.542;2023-05-10T12:36:11;1.83;;;0.30;;
70951;SDS011;69214;55.880;37.542;2023-05-10T12:38:39;1.90;;;0.40;;
70951;SDS011;69214;55.880;37.542;2023-05-10T12:41:09;1.60;;;0.30;;
70951;SDS011;69214;55.880;37.542;2023-05-10T12:43:36;3.07;;;0.33;;
70951;SDS011;69214;55.880;37.542;2023-05-10T12:46:11;1.40;;;0.30;;
70951;SDS011;69214;55.880;37.542;2023-05-10T12:48:41;1.27;;;0.40;;
70951;SDS011;69214;55.880;37.542;2023-05-10T12:51:09;2.20;;;0.50;;
70951;SDS011;69214;55.880;37.542;2023-05-10T12:53:37;2.40;;;0.40;;
70951;SDS011;69214;55.880;37.542;2023-05-10T12:56:04;3.00;;;0.50;;
70951;SDS011;69214;55.880;37.542;2023-05-10T12:58:30;2.53;;;0.50;;
70951;SDS011;69214;55.880;37.542;2023-05-10T13:00:57;1.90;;;0.35;;
70951;SDS011;69214;55.880;37.542;2023-05-10T13:03:23;2.25;;;0.52;;
70951;SDS011;69214;55.880;37.542;2023-05-10T13:05:49;1.33;;;0.30;;
70951;SDS011;69214;55.880;37.542;2023-05-10T13:08:14;3.38;;;0.30;;
70951;SDS011;69214;55.880;37.542;2023-05-10T13:10:40;3.50;;;0.40;;
70951;SDS011;69214;55.880;37.542;2023-05-10T13:13:06;1.90;;;0.40;;
70951;SDS011;69214;55.880;37.542;2023-05-10T13:15:33;0.90;;;0.20;;
70951;SDS011;69214;55.880;37.542;2023-05-10T13:17:59;2.00;;;0.40;;
70951;SDS011;69214;55.880;37.542;2023-05-10T13:20:25;2.30;;;0.40;;
70951;SDS011;69214;55.880;37.542;2023-05-10T13:22:51;1.30;;;0.30;;
70951;SDS011;69214;55.880;37.542;2023-05-10T13:25:17;3.47;;;0.50;;
70951;SDS011;69214;55.880;37.542;2023-05-10T13:27:44;1.23;;;0.40;;
70951;SDS011;69214;55.880;37.542;2023-05-10T13:30:10;1.50;;;0.30;;
70951;SDS011;69214;55.880;37.542;2023-05-10T13:32:36;3.90;;;0.35;;
70951;SDS011;69214;55.880;37.542;2023-05-10T13:35:03;1.33;;;0.35;;
70951;SDS011;69214;55.880;37.542;2023-05-10T13:37:30;2.63;;;0.40;;
70951;SDS011;69214;55.880;37.542;2023-05-10T13:39:56;1.93;;;0.53;;
70951;SDS011;69214;55.880;37.542;2023-05-10T13:42:23;3.38;;;0.45;;
70951;SDS011;69214;55.880;37.542;2023-05-10T13:44:49;4.82;;;0.43;;
70951;SDS011;69214;55.880;37.542;2023-05-10T13:47:15;1.70;;;0.30;;
70951;SDS011;69214;55.880;37.542;2023-05-10T13:49:41;1.67;;;0.43;;
70951;SDS011;69214;55.880;37.542;2023-05-10T13:52:07;1.47;;;0.40;;
70951;SDS011;69214;55.880;37.542;2023-05-10T13:54:38;2.45;;;0.40;;
70951;SDS011;69214;55.880;37.542;2023-05-10T13:57:03;1.98;;;0.40;;
70951;SDS011;69214;55.880;37.542;2023-05-10T13:59:30;1.33;;;0.22;;
70951;SDS011;69214;55.880;37.542;2023-05-10T14:01:59;2.47;;;0.32;;
70951;SDS011;69214;55.880;37.542;2023-05-10T14:04:29;1.53;;;0.40;;
70951;SDS011;69214;55.880;37.542;2023-05-10T14:06:55;2.38;;;0.40;;
70951;SDS011;69214;55.880;37.542;2023-05-10T14:09:21;2.33;;;0.40;;
70951;SDS011;69214;55.880;37.542;2023-05-10T14:11:47;0.90;;;0.30;;
70951;SDS011;69214;55.880;37.542;2023-05-10T14:14:12;2.15;;;0.38;;
70951;SDS011;69214;55.880;37.542;2023-05-10T14:16:41;5.50;;;0.50;;
70951;SDS011;69214;55.880;37.542;2023-05-10T14:19:08;3.05;;;0.50;;
70951;SDS011;69214;55.880;37.542;2023-05-10T14:21:33;1.57;;;0.40;;
70951;SDS011;69214;55.880;37.542;2023-05-10T14:23:59;1.73;;;0.52;;
70951;SDS011;69214;55.880;37.542;2023-05-10T14:26:25;1.77;;;0.40;;
70951;SDS011;69214;55.880;37.542;2023-05-10T14:28:53;3.80;;;0.43;;
70951;SDS011;69214;55.880;37.542;2023-05-10T14:31:19;1.93;;;0.40;;
70951;SDS011;69214;55.880;37.542;2023-05-10T14:33:46;2.83;;;0.60;;
70951;SDS011;69214;55.880;37.542;2023-05-10T14:36:13;1.83;;;0.47;;
70951;SDS011;69214;55.880;37.542;2023-05-10T14:38:39;2.63;;;0.40;;
70951;SDS011;69214;55.880;37.542;2023-05-10T14:41:05;2.90;;;0.40;;
70951;SDS011;69214;55.880;37.542;2023-05-10T14:43:31;4.13;;;0.50;;
70951;SDS011;69214;55.880;37.542;2023-05-10T14:45:57;3.35;;;0.50;;
70951;SDS011;69214;55.880;37.542;2023-05-10T14:48:23;3.30;;;0.40;;
70951;SDS011;69214;55.880;37.542;2023-05-10T14:50:49;4.13;;;0.50;;
70951;SDS011;69214;55.880;37.542;2023-05-10T14:53:15;4.47;;;0.40;;
70951;SDS011;69214;55.880;37.542;2023-05-10T14:55:41;3.45;;;0.40;;
70951;SDS011;69214;55.880;37.542;2023-05-10T14:58:07;1.85;;;0.47;;
70951;SDS011;69214;55.880;37.542;2023-05-10T15:00:33;4.00;;;0.50;;
70951;SDS011;69214;55.880;37.542;2023-05-10T15:02:58;2.45;;;0.40;;
70951;SDS011;69214;55.880;37.542;2023-05-10T15:05:24;3.23;;;0.43;;
70951;SDS011;69214;55.880;37.542;2023-05-10T15:07:50;1.67;;;0.30;;
70951;SDS011;69214;55.880;37.542;2023-05-10T15:10:16;5.73;;;0.50;;
70951;SDS011;69214;55.880;37.542;2023-05-10T15:12:41;2.30;;;0.40;;